createdAt,value
2018-12-05T00:01:33.997Z,9.78
2018-12-05T00:06:36.578Z,10.13
2018-12-05T00:11:39.296Z,8.28
2018-12-05T00:16:41.977Z,9.88
2018-12-05T00:21:44.638Z,9.00
2018-12-05T00:26:47.848Z,11.87
2018-12-05T00:31:50.466Z,9.33
2018-12-05T00:36:53.430Z,13.20
2018-12-05T00:41:56.508Z,10.63
2018-12-05T00:46:59.819Z,10.90
2018-12-05T00:52:02.474Z,8.97
2018-12-05T00:57:05.244Z,8.87
2018-12-05T01:02:08.856Z,10.27
2018-12-05T01:07:11.631Z,8.63
2018-12-05T01:12:14.274Z,9.70
2018-12-05T01:17:17.580Z,8.30
2018-12-05T01:22:20.232Z,10.07
2018-12-05T01:27:22.960Z,5.47
2018-12-05T01:32:26.327Z,9.40
2018-12-05T01:37:29.050Z,8.87
2018-12-05T01:42:31.641Z,9.23
2018-12-05T01:47:34.249Z,8.05
2018-12-05T01:52:37.041Z,7.67
2018-12-05T01:57:39.787Z,7.23
2018-12-05T02:02:42.543Z,11.07
2018-12-05T02:07:45.233Z,9.17
2018-12-05T02:12:47.838Z,8.43
2018-12-05T02:17:50.584Z,7.80
2018-12-05T02:22:54.049Z,6.20
2018-12-05T02:27:56.857Z,8.10
2018-12-05T02:32:59.653Z,8.33
2018-12-05T02:38:02.293Z,6.70
2018-12-05T02:43:05.149Z,6.33
2018-12-05T02:48:07.837Z,10.75
2018-12-05T02:53:10.632Z,4.33
2018-12-05T02:58:13.438Z,8.20
2018-12-05T03:03:16.311Z,9.67
2018-12-05T03:08:19.111Z,6.73
2018-12-05T03:13:21.847Z,7.97
2018-12-05T03:18:24.534Z,6.87
2018-12-05T03:23:27.912Z,5.23
2018-12-05T03:28:30.522Z,8.97
2018-12-05T03:33:34.028Z,12.33
2018-12-05T03:38:37.772Z,8.37
2018-12-05T03:43:40.608Z,5.00
2018-12-05T03:48:43.396Z,6.73
2018-12-05T03:53:46.181Z,10.20
2018-12-05T03:58:48.980Z,6.87
2018-12-05T04:03:51.777Z,6.60
2018-12-05T04:08:54.479Z,7.97
2018-12-05T04:13:57.063Z,11.20
2018-12-05T04:18:59.874Z,8.10
2018-12-05T04:24:02.530Z,6.90
2018-12-05T04:29:05.214Z,7.50
2018-12-05T04:34:08.386Z,9.30
2018-12-05T04:39:10.980Z,9.70
2018-12-05T04:44:13.604Z,6.50
2018-12-05T04:49:16.981Z,8.37
2018-12-05T04:54:20.701Z,11.50
2018-12-05T04:59:23.370Z,10.40
2018-12-05T05:04:26.007Z,10.60
2018-12-05T05:09:28.620Z,6.93
2018-12-05T05:14:31.266Z,7.83
2018-12-05T05:19:33.929Z,8.40
2018-12-05T05:24:36.717Z,7.80
2018-12-05T05:29:39.285Z,7.62
2018-12-05T05:34:42.097Z,8.17
2018-12-05T05:39:45.346Z,7.80
2018-12-05T05:44:48.033Z,8.60
2018-12-05T05:49:50.565Z,8.00
2018-12-05T05:54:53.096Z,9.20
2018-12-05T05:59:55.814Z,6.30
2018-12-05T06:04:58.653Z,8.17
2018-12-05T06:10:01.207Z,11.30
2018-12-05T06:15:04.757Z,9.13
2018-12-05T06:20:07.388Z,10.40
2018-12-05T06:25:09.996Z,9.33
2018-12-05T06:30:13.161Z,11.87
2018-12-05T06:35:15.732Z,10.80
2018-12-05T06:40:18.394Z,9.30
2018-12-05T06:45:21.795Z,8.30
2018-12-05T06:50:24.325Z,8.23
2018-12-05T06:55:26.892Z,12.83
2018-12-05T07:00:29.571Z,6.93
2018-12-05T07:05:32.938Z,9.40
2018-12-05T07:10:35.668Z,7.83
2018-12-05T07:15:38.205Z,8.43
2018-12-05T07:20:40.789Z,6.87
2018-12-05T07:25:43.349Z,13.03
2018-12-05T07:30:45.988Z,8.17
2018-12-05T07:35:48.581Z,8.70
2018-12-05T07:40:51.217Z,8.37
2018-12-05T07:45:53.803Z,9.07
2018-12-05T07:50:56.395Z,9.40
2018-12-05T07:55:58.959Z,11.20
2018-12-05T08:01:01.579Z,14.10
2018-12-05T08:06:04.171Z,14.70
2018-12-05T08:11:06.803Z,11.43
2018-12-05T08:16:09.380Z,8.50
2018-12-05T08:21:12.027Z,10.43
2018-12-05T08:26:14.714Z,13.22
2018-12-05T08:31:17.261Z,11.73
2018-12-05T08:36:19.838Z,8.27
2018-12-05T08:41:22.463Z,15.23
2018-12-05T08:46:25.093Z,12.10
2018-12-05T08:51:27.672Z,8.67
2018-12-05T08:56:30.239Z,12.37
2018-12-05T09:01:32.815Z,12.33
2018-12-05T09:06:35.408Z,7.97
2018-12-05T09:11:38.004Z,10.53
2018-12-05T09:16:40.668Z,11.10
2018-12-05T09:21:43.260Z,7.83
2018-12-05T09:26:46.161Z,8.33
2018-12-05T09:31:49.166Z,13.87
2018-12-05T09:36:52.274Z,7.33
2018-12-05T09:41:55.089Z,9.57
2018-12-05T09:46:57.827Z,7.87
2018-12-05T09:52:00.439Z,10.37
2018-12-05T09:57:03.117Z,14.80
2018-12-05T10:02:05.738Z,8.87
2018-12-05T10:07:08.331Z,8.00
2018-12-05T10:12:11.826Z,17.17
2018-12-05T10:17:14.780Z,11.30
2018-12-05T10:22:17.344Z,8.50
2018-12-05T10:27:19.884Z,8.83
2018-12-05T10:32:22.451Z,11.57
2018-12-05T10:37:25.073Z,9.53
2018-12-05T10:42:27.702Z,12.37
2018-12-05T10:47:30.260Z,9.03
2018-12-05T10:52:33.059Z,13.50
2018-12-05T10:57:35.614Z,11.10
2018-12-05T11:02:44.763Z,9.57
2018-12-05T11:07:52.980Z,9.33
2018-12-05T11:13:01.166Z,11.37
2018-12-05T11:18:10.298Z,9.23
2018-12-05T11:23:18.449Z,11.03
2018-12-05T11:28:21.174Z,13.37
2018-12-05T11:33:24.525Z,10.03
2018-12-05T11:38:28.146Z,11.85
2018-12-05T11:43:31.585Z,9.37
2018-12-05T11:48:34.178Z,14.50
2018-12-05T11:53:36.743Z,15.40
2018-12-05T11:58:39.441Z,12.60
2018-12-05T12:03:42.889Z,9.00
2018-12-05T12:08:45.555Z,14.23
2018-12-05T12:13:48.169Z,11.00
2018-12-05T12:18:50.797Z,13.17
2018-12-05T12:23:53.414Z,10.40
2018-12-05T12:28:56.095Z,10.67
2018-12-05T12:33:59.310Z,10.03
2018-12-05T12:39:01.881Z,12.90
2018-12-05T12:44:04.509Z,10.87
2018-12-05T12:49:08.066Z,5.73
2018-12-05T12:54:10.712Z,8.27
2018-12-05T12:59:13.350Z,10.53
2018-12-05T13:04:16.169Z,9.60
2018-12-05T13:09:18.922Z,8.47
2018-12-05T13:14:21.619Z,11.80
2018-12-05T13:19:24.474Z,6.73
2018-12-05T13:24:27.814Z,7.90
2018-12-05T13:29:30.410Z,8.00
2018-12-05T13:34:32.969Z,12.03
2018-12-05T13:39:35.650Z,10.13
2018-12-05T13:44:38.206Z,8.27
2018-12-05T13:49:40.749Z,6.83
2018-12-05T13:54:44.159Z,7.93
2018-12-05T13:59:46.776Z,11.97
2018-12-05T14:04:49.380Z,7.37
2018-12-05T14:09:52.136Z,6.90
2018-12-05T14:14:55.957Z,7.87
2018-12-05T14:19:59.451Z,6.27
2018-12-05T14:25:02.185Z,6.30
2018-12-05T14:30:07.074Z,5.13
2018-12-05T14:35:09.657Z,7.90
2018-12-05T14:40:12.205Z,8.07
2018-12-05T14:45:14.771Z,7.53
2018-12-05T14:50:17.516Z,6.37
2018-12-05T14:55:20.137Z,6.57
2018-12-05T15:00:22.680Z,7.67
2018-12-05T15:05:26.050Z,9.70
2018-12-05T15:10:28.616Z,11.00
2018-12-05T15:15:31.169Z,9.90
2018-12-05T15:20:33.878Z,8.97
2018-12-05T15:25:37.014Z,9.10
2018-12-05T15:30:40.531Z,10.30
2018-12-05T15:35:43.352Z,10.83
2018-12-05T15:40:45.219Z,11.47
2018-12-05T15:45:48.382Z,13.57
2018-12-05T15:50:50.974Z,13.23
2018-12-05T15:55:53.519Z,10.67
2018-12-05T16:00:56.138Z,11.97
2018-12-05T16:05:58.709Z,9.17
2018-12-05T16:11:01.262Z,13.67
2018-12-05T16:16:03.918Z,8.97
2018-12-05T16:21:06.588Z,10.18
2018-12-05T16:26:10.813Z,11.67
2018-12-05T16:31:13.713Z,12.90
2018-12-05T16:36:16.362Z,13.57
2018-12-05T16:41:19.076Z,12.20
2018-12-05T16:46:21.629Z,13.37
2018-12-05T16:51:24.259Z,8.97
2018-12-05T16:56:26.824Z,11.77
2018-12-05T17:01:29.418Z,9.53
2018-12-05T17:06:32.092Z,11.93
2018-12-05T17:11:34.697Z,14.73
2018-12-05T17:16:37.374Z,11.80
2018-12-05T17:21:40.059Z,15.53
2018-12-05T17:26:42.765Z,9.27
2018-12-05T17:31:46.444Z,11.67
2018-12-05T17:36:49.010Z,11.83
2018-12-05T17:41:51.545Z,11.00
2018-12-05T17:46:54.858Z,12.27
2018-12-05T17:51:57.517Z,13.20
2018-12-05T17:57:00.097Z,11.30
2018-12-05T18:02:02.641Z,15.70
2018-12-05T18:07:06.840Z,14.10
2018-12-05T18:12:09.682Z,14.07
2018-12-05T18:17:12.314Z,12.67
2018-12-05T18:22:15.697Z,12.67
2018-12-05T18:27:18.315Z,14.10
2018-12-05T18:32:20.911Z,13.90
2018-12-05T18:37:23.548Z,12.53
2018-12-05T18:42:26.153Z,13.03
2018-12-05T18:47:28.728Z,10.27
2018-12-05T18:52:31.345Z,10.00
2018-12-05T18:57:33.909Z,12.73
2018-12-05T19:02:36.503Z,12.80
2018-12-05T19:07:39.119Z,15.17
2018-12-05T19:12:41.719Z,12.97
2018-12-05T19:17:44.356Z,15.13
2018-12-05T19:22:46.923Z,15.57
2018-12-05T19:27:49.562Z,14.23
2018-12-05T19:32:52.167Z,12.23
2018-12-05T19:37:55.599Z,12.30
2018-12-05T19:42:58.210Z,13.07
2018-12-05T19:48:00.834Z,12.97
2018-12-05T19:53:03.393Z,13.83
2018-12-05T19:58:06.064Z,14.37
2018-12-05T20:03:09.419Z,13.40
2018-12-05T20:08:12.613Z,12.53
2018-12-05T20:13:15.229Z,15.60
2018-12-05T20:18:19.348Z,18.75
2018-12-05T20:23:22.639Z,17.40
2018-12-05T20:28:25.381Z,12.17
2018-12-05T20:33:28.476Z,13.87
2018-12-05T20:38:31.313Z,18.37
2018-12-05T20:43:33.983Z,15.70
2018-12-05T20:48:36.558Z,16.73
2018-12-05T20:53:40.067Z,15.00
2018-12-05T20:58:42.721Z,16.93
2018-12-05T21:03:45.766Z,16.97
2018-12-05T21:08:48.443Z,13.83
2018-12-05T21:13:51.088Z,14.27
2018-12-05T21:18:54.161Z,14.83
2018-12-05T21:23:57.321Z,19.23
2018-12-05T21:28:59.940Z,17.10
2018-12-05T21:34:02.513Z,15.90
2018-12-05T21:39:06.972Z,33.57
2018-12-05T21:44:09.606Z,16.40
2018-12-05T21:49:12.238Z,16.60
2018-12-05T21:54:14.964Z,14.83
2018-12-05T21:59:17.589Z,14.30
2018-12-05T22:04:20.233Z,15.53
2018-12-05T22:09:22.809Z,13.23
2018-12-05T22:14:25.637Z,15.07
2018-12-05T22:19:28.273Z,16.80
2018-12-05T22:24:30.890Z,16.80
2018-12-05T22:29:33.597Z,14.37
2018-12-05T22:34:36.453Z,13.07
2018-12-05T22:39:39.102Z,15.53
2018-12-05T22:44:41.738Z,16.00
2018-12-05T22:49:44.335Z,15.40
2018-12-05T22:54:46.881Z,16.37
2018-12-05T22:59:49.482Z,17.90
2018-12-05T23:04:52.026Z,14.00
2018-12-05T23:09:54.658Z,14.00
2018-12-05T23:14:57.201Z,10.87
2018-12-05T23:19:59.927Z,15.60
2018-12-05T23:25:02.933Z,12.27
2018-12-05T23:30:06.361Z,14.57
2018-12-05T23:35:09.130Z,16.10
2018-12-05T23:40:11.785Z,13.90
2018-12-05T23:45:14.600Z,15.33
2018-12-05T23:50:17.368Z,12.60
2018-12-05T23:55:19.924Z,32.27
